Terminal Aerodrome Forecast
Issued by NWS

Home | Current Version | Previous Version | Text Only | Print | Product List | Glossary On
Versions: 1 2 3 4 5 6 7 8 9 10 11 12 13 14 15 16 17 18 19 20 21 22 23
000
FTUS43 KAPX 241537 AAA
TAFTVC
TAF AMD
KTVC 241537Z 2416/2512 26007KT 6SM -DZ BR OVC007
     FM241800 30007KT 6SM -RA BR OVC018
     FM250000 29007KT 1SM -SN OVC014=

USA.gov is the U.S. government's official web portal to all federal, state and local government web resources and services.